Time;durP1;ratioP1;P1;durP2;ratioP2;P2;SDS_P1;SDS_P2;PMS_P1;PMS_P2;Temp;Humidity;BMP_temperature;BMP_pressure;BME280_temperature;BME280_humidity;BME280_pressure;Samples;Min_cycle;Max_cycle;Signal;HPM_P1;HPM_P2
2021/04/29 04:52:28;;;;;;;45.05;34.38;;;10.00;99.90;;;;;;4986037;23;20058;-71
2021/04/29 04:54:55;;;;;;;40.85;33.65;;;10.10;99.90;;;;;;4970954;28;20034;-71
2021/04/29 04:57:21;;;;;;;44.47;34.03;;;10.00;99.90;;;;;;4971427;28;20054;-72
2021/04/29 04:59:48;;;;;;;36.83;29.90;;;10.10;99.90;;;;;;4971370;28;20038;-71
2021/04/29 05:02:15;;;;;;;42.42;32.40;;;10.00;99.90;;;;;;4971261;28;20130;-71
2021/04/29 05:04:41;;;;;;;41.10;33.38;;;10.00;99.90;;;;;;4971394;28;20494;-71
2021/04/29 05:07:09;;;;;;;;;;;10.00;99.90;;;;;;5008322;23;20157;-65
2021/04/29 05:09:38;;;;;;;39.97;31.83;;;10.00;99.90;;;;;;4989034;28;20072;-66
2021/04/29 05:12:05;;;;;;;37.67;30.25;;;10.10;99.90;;;;;;4990304;28;20103;-66
2021/04/29 05:14:31;;;;;;;39.85;31.85;;;10.20;99.90;;;;;;4990059;28;20498;-67
2021/04/29 05:16:58;;;;;;;40.70;32.80;;;10.20;99.90;;;;;;4990303;28;20104;-67
2021/04/29 05:19:25;;;;;;;38.15;33.88;;;10.20;99.90;;;;;;4990890;28;20137;-67
2021/04/29 05:21:51;;;;;;;37.65;32.22;;;10.10;99.90;;;;;;4990294;28;20117;-66
2021/04/29 05:24:18;;;;;;;40.03;31.27;;;10.20;99.90;;;;;;4990073;28;20065;-66
2021/04/29 05:26:45;;;;;;;43.50;31.98;;;10.10;99.90;;;;;;4989926;28;20133;-67
2021/04/29 05:29:12;;;;;;;37.42;31.27;;;10.10;99.90;;;;;;4989994;28;20046;-66
2021/04/29 05:31:39;;;;;;;38.03;33.42;;;10.20;99.90;;;;;;4990231;28;20053;-66
2021/04/29 05:34:06;;;;;;;37.60;30.48;;;10.10;99.90;;;;;;4988570;28;20065;-67
2021/04/29 05:36:32;;;;;;;44.35;30.67;;;10.20;99.90;;;;;;4990328;28;20043;-67
2021/04/29 05:38:59;;;;;;;;;;;10.20;99.90;;;;;;4989205;28;20062;-67
2021/04/29 05:41:25;;;;;;;39.03;28.10;;;10.20;99.90;;;;;;4990263;28;19922;-67
2021/04/29 05:43:54;;;;;;;29.73;22.88;;;10.20;99.90;;;;;;4988463;28;20063;-66
2021/04/29 05:46:20;;;;;;;29.15;25.27;;;10.20;99.90;;;;;;4990022;28;20582;-67
2021/04/29 05:48:47;;;;;;;29.15;23.45;;;10.30;99.90;;;;;;4989979;28;20096;-67
2021/04/29 05:51:14;;;;;;;30.13;26.13;;;10.40;99.90;;;;;;4986077;28;20223;-67
2021/04/29 05:53:40;;;;;;;31.52;26.23;;;10.30;99.90;;;;;;4985964;28;20275;-66
2021/04/29 05:56:07;;;;;;;31.08;26.25;;;10.30;99.90;;;;;;4971373;28;20073;-67
2021/04/29 05:58:34;;;;;;;33.65;28.27;;;10.30;99.90;;;;;;4988808;28;20074;-66
2021/04/29 06:01:02;;;;;;;37.03;28.58;;;10.40;99.90;;;;;;4990129;28;20193;-67
2021/04/29 06:03:29;;;;;;;36.13;29.27;;;10.40;99.90;;;;;;4988104;28;20101;-67
2021/04/29 06:05:55;;;;;;;35.50;29.85;;;10.40;99.90;;;;;;4978468;28;20046;-67
2021/04/29 06:08:22;;;;;;;35.80;31.52;;;10.40;99.90;;;;;;4982804;28;20212;-66
2021/04/29 06:10:48;;;;;;;41.03;31.13;;;10.50;99.90;;;;;;4978358;28;20434;-66
2021/04/29 06:13:15;;;;;;;36.63;31.77;;;10.40;99.90;;;;;;4985016;28;20043;-66
2021/04/29 06:15:41;;;;;;;;;;;10.40;99.90;;;;;;5000762;28;20094;-65
2021/04/29 06:18:08;;;;;;;39.40;29.02;;;10.40;99.90;;;;;;4998689;28;19926;-66
2021/04/29 06:20:35;;;;;;;37.17;31.20;;;10.50;99.90;;;;;;4996064;28;20047;-66
2021/04/29 06:23:01;;;;;;;;;;;10.50;99.90;;;;;;4990947;28;20506;-66
2021/04/29 06:25:28;;;;;;;37.63;29.02;;;10.60;99.90;;;;;;4992159;28;20305;-66
2021/04/29 06:27:55;;;;;;;36.63;30.27;;;10.60;99.90;;;;;;4974355;28;20580;-66
2021/04/29 06:30:22;;;;;;;35.15;31.35;;;10.50;99.90;;;;;;4971836;28;20121;-66
2021/04/29 06:32:48;;;;;;;47.88;38.53;;;10.60;99.90;;;;;;4990043;28;20046;-66
2021/04/29 06:35:16;;;;;;;35.75;30.67;;;10.60;99.90;;;;;;4986383;28;20113;-66
2021/04/29 06:37:42;;;;;;;34.50;30.67;;;10.80;99.90;;;;;;4987724;28;20309;-67
2021/04/29 06:40:12;;;;;;;39.05;29.25;;;10.80;99.90;;;;;;4997186;28;20057;-66
2021/04/29 06:42:38;;;;;;;32.28;27.85;;;10.80;99.90;;;;;;4997694;28;20061;-66
2021/04/29 06:45:06;;;;;;;33.80;26.42;;;10.90;99.90;;;;;;4996982;28;20113;-66
2021/04/29 06:47:33;;;;;;;29.33;26.05;;;11.00;99.90;;;;;;4995541;28;20042;-66
2021/04/29 06:50:01;;;;;;;31.67;26.58;;;11.10;99.90;;;;;;4996144;28;20125;-66
2021/04/29 06:52:28;;;;;;;30.85;24.35;;;11.10;99.90;;;;;;4993163;28;20050;-66
2021/04/29 06:54:55;;;;;;;27.25;24.00;;;11.20;99.90;;;;;;4993124;28;20049;-67
2021/04/29 06:57:21;;;;;;;33.17;23.77;;;11.20;99.90;;;;;;4992648;28;20046;-67
2021/04/29 06:59:48;;;;;;;27.70;24.42;;;11.20;99.90;;;;;;4989341;28;20388;-66
2021/04/29 07:02:14;;;;;;;23.77;19.88;;;11.40;99.90;;;;;;4986735;28;20117;-66
2021/04/29 07:04:41;;;;;;;23.15;19.50;;;11.70;99.90;;;;;;4977906;28;20498;-66
2021/04/29 07:07:07;;;;;;;18.13;15.35;;;12.00;99.90;;;;;;4987267;28;20137;-66
2021/04/29 07:09:35;;;;;;;19.02;16.48;;;12.10;99.90;;;;;;4989568;28;20056;-66
2021/04/29 07:12:01;;;;;;;20.95;15.07;;;12.20;99.90;;;;;;4991419;28;20125;-66
2021/04/29 07:14:28;;;;;;;15.68;13.65;;;12.30;99.90;;;;;;4990730;28;20045;-66
2021/04/29 07:16:54;;;;;;;14.38;11.45;;;12.60;99.90;;;;;;4987413;28;20046;-67
2021/04/29 07:19:21;;;;;;;12.77;10.57;;;12.80;99.90;;;;;;4989103;28;20506;-66
2021/04/29 07:21:47;;;;;;;14.30;8.70;;;13.60;99.90;;;;;;4986190;28;20122;-66
2021/04/29 07:24:14;;;;;;;11.15;6.38;;;13.60;99.90;;;;;;4975934;28;20050;-67
2021/04/29 07:26:41;;;;;;;12.10;7.00;;;13.50;99.90;;;;;;4990791;28;20073;-66
2021/04/29 07:29:08;;;;;;;9.70;6.68;;;13.50;99.90;;;;;;4989290;28;20042;-67
2021/04/29 07:31:34;;;;;;;8.68;5.82;;;13.20;99.90;;;;;;4987300;28;20042;-66
2021/04/29 07:34:01;;;;;;;6.30;5.70;;;13.50;99.90;;;;;;4988631;28;20041;-67
2021/04/29 07:36:28;;;;;;;7.38;5.63;;;13.40;99.90;;;;;;4988928;28;20069;-66
2021/04/29 07:38:54;;;;;;;9.18;6.30;;;13.30;99.90;;;;;;4990726;28;20077;-66
2021/04/29 07:41:24;;;;;;;9.43;5.90;;;13.50;99.90;;;;;;4986627;28;20506;-66
2021/04/29 07:43:52;;;;;;;8.30;6.20;;;13.40;99.90;;;;;;4990645;28;20085;-66
2021/04/29 07:46:18;;;;;;;8.70;6.03;;;13.30;99.90;;;;;;4990044;28;20270;-65
2021/04/29 07:48:45;;;;;;;8.30;6.80;;;13.40;99.90;;;;;;4979995;28;20057;-66
2021/04/29 07:51:11;;;;;;;8.35;7.55;;;13.40;99.90;;;;;;4987287;28;20046;-66
2021/04/29 07:53:38;;;;;;;8.70;6.22;;;13.40;99.90;;;;;;4977493;28;20034;-66
2021/04/29 07:56:05;;;;;;;11.27;6.00;;;13.40;99.90;;;;;;4985469;28;20045;-66
2021/04/29 07:58:31;;;;;;;7.70;6.50;;;13.40;99.90;;;;;;4979010;28;20423;-66
2021/04/29 08:00:59;;;;;;;8.70;7.47;;;13.40;99.90;;;;;;4985448;28;20064;-66
2021/04/29 08:03:25;;;;;;;8.40;7.50;;;13.30;99.90;;;;;;4987739;28;20066;-66
2021/04/29 08:05:52;;;;;;;10.15;8.48;;;13.30;99.90;;;;;;4989935;28;20524;-66
2021/04/29 08:08:19;;;;;;;;;;;13.60;99.90;;;;;;4984113;28;20700;-66
2021/04/29 08:10:46;;;;;;;11.68;9.18;;;13.80;99.90;;;;;;4986676;28;20016;-66
2021/04/29 08:13:12;;;;;;;14.98;9.63;;;13.70;99.90;;;;;;4982151;28;20054;-66
2021/04/29 08:15:40;;;;;;;12.35;8.90;;;13.60;99.90;;;;;;4988540;28;20085;-66
2021/04/29 08:18:08;;;;;;;10.15;9.15;;;13.90;99.90;;;;;;4990862;28;20057;-67
2021/04/29 08:20:35;;;;;;;12.27;8.63;;;14.20;99.90;;;;;;4992443;28;20049;-66
2021/04/29 08:23:02;;;;;;;9.98;8.88;;;14.50;99.90;;;;;;4993003;28;20038;-66
2021/04/29 08:25:28;;;;;;;9.80;8.80;;;14.90;99.90;;;;;;4993162;28;20354;-66
2021/04/29 08:27:55;;;;;;;13.68;8.35;;;14.90;99.90;;;;;;4992789;28;20053;-66
2021/04/29 08:30:26;;;;;;;8.05;7.25;;;14.80;99.90;;;;;;4986717;28;20069;-66
2021/04/29 08:32:53;;;;;;;10.95;7.97;;;14.60;99.90;;;;;;4987470;28;20050;-66
2021/04/29 08:35:21;;;;;;;9.27;8.05;;;14.90;99.90;;;;;;4976869;28;20100;-66
2021/04/29 08:37:48;;;;;;;8.38;7.47;;;15.00;99.90;;;;;;4987153;28;20481;-66
2021/04/29 08:40:15;;;;;;;9.00;7.20;;;15.10;99.90;;;;;;4990880;28;20050;-65
2021/04/29 08:42:42;;;;;;;7.82;7.00;;;15.00;99.90;;;;;;4990082;28;20548;-65
2021/04/29 08:45:10;;;;;;;11.95;6.63;;;14.90;99.90;;;;;;4984003;28;20052;-66
2021/04/29 08:47:37;;;;;;;8.75;5.20;;;15.10;99.90;;;;;;4986700;28;20384;-65
2021/04/29 08:50:05;;;;;;;7.65;6.35;;;15.00;99.90;;;;;;4978004;28;20049;-66
2021/04/29 08:52:33;;;;;;;8.95;5.88;;;15.00;99.90;;;;;;4985604;28;20058;-66
2021/04/29 08:55:00;;;;;;;7.10;4.88;;;15.00;99.90;;;;;;4980127;28;20038;-65
2021/04/29 08:57:27;;;;;;;6.40;4.93;;;15.10;99.90;;;;;;4983409;28;20541;-66
2021/04/29 08:59:53;;;;;;;6.60;4.38;;;14.80;99.90;;;;;;4992407;28;20046;-66
2021/04/29 09:02:32;;;;;;;5.72;4.75;;;14.90;99.90;;;;;;4979760;28;20125;-66
2021/04/29 09:05:09;;;;;;;8.65;4.95;;;15.00;99.90;;;;;;4989901;28;20044;-65
2021/04/29 09:07:37;;;;;;;4.95;3.95;;;15.30;99.90;;;;;;4985038;28;20544;-66
2021/04/29 09:10:05;;;;;;;4.50;4.07;;;15.60;99.90;;;;;;4971821;28;20055;-67
2021/04/29 09:12:38;;;;;;;6.70;4.07;;;15.30;99.90;;;;;;4979248;28;20096;-67
2021/04/29 09:15:07;;;;;;;4.60;4.10;;;15.40;99.90;;;;;;4990936;28;20082;-67
2021/04/29 09:17:34;;;;;;;7.60;4.07;;;16.00;99.90;;;;;;4990811;28;20166;-67
2021/04/29 09:20:00;;;;;;;6.07;3.65;;;16.70;99.90;;;;;;4989940;28;20038;-67
2021/04/29 09:22:26;;;;;;;5.50;3.47;;;16.80;99.90;;;;;;4988057;28;20518;-67
2021/04/29 09:24:54;;;;;;;5.70;3.40;;;16.70;99.90;;;;;;4986083;28;20402;-67
2021/04/29 09:27:23;;;;;;;5.05;3.25;;;17.90;99.90;;;;;;4971057;28;20672;-67
2021/04/29 09:29:51;;;;;;;5.15;3.70;;;18.40;99.90;;;;;;4980033;28;20042;-66
2021/04/29 09:32:26;;;;;;;4.72;3.25;;;19.40;97.60;;;;;;4989887;28;20081;-67
2021/04/29 09:34:53;;;;;;;3.80;3.33;;;19.60;95.70;;;;;;4988058;28;20142;-68
2021/04/29 09:37:31;;;;;;;7.18;2.90;;;18.80;96.50;;;;;;4984236;28;20042;-68
2021/04/29 09:39:59;;;;;;;5.82;4.57;;;19.10;98.70;;;;;;4990375;28;20470;-66
2021/04/29 09:42:30;;;;;;;4.70;4.22;;;18.20;99.90;;;;;;4985192;28;20050;-66
2021/04/29 09:44:58;;;;;;;8.10;3.70;;;16.90;99.90;;;;;;4988410;28;20062;-67
2021/04/29 09:47:25;;;;;;;8.15;4.03;;;18.20;99.90;;;;;;4980983;28;20074;-67
2021/04/29 09:49:51;;;;;;;5.32;3.47;;;19.10;99.90;;;;;;4982718;28;20105;-66
2021/04/29 09:52:19;;;;;;;3.17;2.50;;;18.40;99.40;;;;;;4981357;28;20042;-65
2021/04/29 09:54:46;;;;;;;5.40;2.33;;;17.20;98.90;;;;;;4990971;28;20077;-66
2021/04/29 09:57:18;;;;;;;6.25;3.10;;;18.30;95.10;;;;;;4991290;28;20042;-67
2021/04/29 09:59:47;;;;;;;5.80;2.60;;;17.90;94.40;;;;;;4989376;28;20034;-66
2021/04/29 10:02:15;;;;;;;3.45;2.70;;;18.80;91.80;;;;;;4990526;28;20050;-65
2021/04/29 10:04:44;;;;;;;4.07;3.13;;;18.40;93.30;;;;;;4972294;28;20069;-65
2021/04/29 10:07:11;;;;;;;4.97;3.05;;;18.20;95.60;;;;;;4970680;28;20053;-65
2021/04/29 10:09:38;;;;;;;5.25;3.08;;;18.80;95.50;;;;;;4971376;28;20046;-66
2021/04/29 10:12:07;;;;;;;4.13;2.47;;;18.80;94.90;;;;;;4972433;28;20121;-66
2021/04/29 10:14:36;;;;;;;3.15;2.70;;;18.40;92.50;;;;;;4982228;28;20065;-65
2021/04/29 10:17:04;;;;;;;5.13;2.67;;;17.50;94.30;;;;;;4993116;28;20042;-65
2021/04/29 10:19:34;;;;;;;4.95;2.60;;;17.20;94.80;;;;;;4991888;28;20051;-65
2021/04/29 10:22:01;;;;;;;6.00;3.53;;;16.50;99.10;;;;;;4987433;28;20133;-65
2021/04/29 10:24:28;;;;;;;4.60;3.47;;;16.30;99.90;;;;;;4993511;28;20039;-67
2021/04/29 10:27:06;;;;;;;5.05;3.45;;;16.00;99.90;;;;;;4993445;28;20121;-66
2021/04/29 10:29:34;;;;;;;4.85;3.70;;;15.90;99.90;;;;;;4992016;28;20078;-66
2021/04/29 10:32:03;;;;;;;3.85;3.30;;;16.10;99.90;;;;;;4992749;28;20146;-66
2021/04/29 10:34:38;;;;;;;5.20;3.35;;;16.00;99.90;;;;;;4993490;28;20520;-68
2021/04/29 10:37:17;;;;;;;4.63;2.87;;;16.20;99.90;;;;;;4993547;28;20043;-66
2021/04/29 10:39:54;;;;;;;6.13;3.03;;;16.00;99.90;;;;;;4981366;28;20046;-68
2021/04/29 10:42:21;;;;;;;8.63;5.53;;;15.70;99.90;;;;;;4980993;28;20061;-67
2021/04/29 10:44:51;;;;;;;7.80;5.97;;;15.40;99.90;;;;;;4990674;28;20035;-64
2021/04/29 10:47:25;;;;;;;10.30;7.18;;;14.80;99.90;;;;;;4979105;28;20483;-67
2021/04/29 10:49:54;;;;;;;8.90;6.03;;;14.50;99.90;;;;;;4987961;28;20395;-65
2021/04/29 10:52:20;;;;;;;11.70;5.32;;;14.10;99.90;;;;;;4974001;28;20510;-67
2021/04/29 10:54:51;;;;;;;7.93;5.90;;;13.50;99.90;;;;;;4989779;28;20702;-65
2021/04/29 10:57:18;;;;;;;5.40;3.97;;;13.00;99.90;;;;;;4992802;28;20057;-64
2021/04/29 10:59:47;;;;;;;;;;;12.80;99.90;;;;;;4992094;28;20137;-66
2021/04/29 11:02:28;;;;;;;3.50;2.38;;;12.70;99.90;;;;;;4992503;28;20028;-66
2021/04/29 11:04:55;;;;;;;4.05;3.30;;;12.40;99.90;;;;;;4992260;28;20042;-65
2021/04/29 11:10:33;;;;;;;4.70;1.80;;;11.80;99.90;;;;;;4940432;29;20451;-73
2021/04/29 11:13:01;;;;;;;4.00;1.60;;;11.60;99.90;;;;;;4952450;28;20115;-73
2021/04/29 11:15:30;;;;;;;2.17;1.50;;;12.20;99.90;;;;;;4951488;28;20110;-73
2021/04/29 11:18:08;;;;;;;6.05;2.03;;;12.70;99.90;;;;;;4975735;28;20089;-74
2021/04/29 11:20:43;;;;;;;2.17;1.60;;;13.00;99.90;;;;;;4954526;28;20054;-73
2021/04/29 11:23:09;;;;;;;2.22;1.48;;;13.50;99.90;;;;;;4938985;29;20054;-73
2021/04/29 11:25:38;;;;;;;5.50;2.90;;;14.10;99.90;;;;;;4958356;28;20487;-73
2021/04/29 11:28:05;;;;;;;4.25;2.70;;;14.60;99.90;;;;;;4968770;28;20139;-72
2021/04/29 11:30:32;;;;;;;4.68;2.78;;;15.10;99.90;;;;;;4966207;28;20130;-72
2021/04/29 11:33:01;;;;;;;4.88;3.30;;;14.80;99.90;;;;;;4954940;28;20073;-71
2021/04/29 11:35:32;;;;;;;4.70;3.50;;;15.30;99.90;;;;;;4971472;28;20050;-71
2021/04/29 11:37:59;;;;;;;3.47;3.08;;;15.90;99.90;;;;;;4966790;28;20051;-71
2021/04/29 11:40:28;;;;;;;8.10;3.65;;;16.20;99.90;;;;;;4942456;28;20105;-72
2021/04/29 11:42:56;;;;;;;4.20;3.72;;;16.70;99.90;;;;;;4966976;28;20126;-70
2021/04/29 11:45:25;;;;;;;4.70;2.97;;;17.30;99.90;;;;;;4960759;28;20039;-70
2021/04/29 11:47:59;;;;;;;5.75;3.05;;;17.60;99.90;;;;;;4959972;28;20495;-70
2021/04/29 11:50:29;;;;;;;4.57;2.97;;;17.70;99.90;;;;;;4968855;28;20046;-71
2021/04/29 11:53:06;;;;;;;3.08;2.78;;;18.00;99.90;;;;;;4972812;28;20074;-71
2021/04/29 11:55:34;;;;;;;4.80;3.70;;;18.30;99.90;;;;;;4973776;28;20133;-69
2021/04/29 11:58:02;;;;;;;6.30;3.13;;;18.20;99.90;;;;;;4956272;28;20042;-70
2021/04/29 12:00:34;;;;;;;3.17;2.72;;;18.50;99.90;;;;;;4955751;28;20183;-71
2021/04/29 12:03:01;;;;;;;5.45;3.25;;;18.60;99.90;;;;;;4946811;29;20138;-69
2021/04/29 12:05:33;;;;;;;6.20;2.88;;;18.80;99.90;;;;;;4964316;28;20031;-69
2021/04/29 12:08:02;;;;;;;4.55;3.40;;;18.80;98.20;;;;;;4970233;28;20131;-71
2021/04/29 12:10:42;;;;;;;6.05;3.38;;;18.60;99.40;;;;;;4969254;28;20111;-70
2021/04/29 12:13:08;;;;;;;5.78;3.50;;;18.60;98.90;;;;;;4953676;28;20568;-71
2021/04/29 12:15:36;;;;;;;6.05;3.78;;;18.60;97.30;;;;;;4965113;28;20522;-69
2021/04/29 12:18:04;;;;;;;6.22;3.50;;;18.60;97.80;;;;;;4963774;28;20057;-70
2021/04/29 12:20:34;;;;;;;5.88;3.10;;;18.80;96.50;;;;;;4966913;28;20085;-70
2021/04/29 12:23:00;;;;;;;6.25;3.40;;;18.50;95.00;;;;;;4968761;28;20054;-73
2021/04/29 12:25:29;;;;;;;4.72;3.10;;;17.90;96.30;;;;;;4972213;28;20090;-73
2021/04/29 12:27:56;;;;;;;6.75;3.55;;;17.20;97.10;;;;;;4964363;28;20046;-72
2021/04/29 12:30:27;;;;;;;9.63;3.40;;;17.00;94.00;;;;;;4968462;28;20043;-73
2021/04/29 12:32:54;;;;;;;7.43;2.80;;;16.90;92.50;;;;;;4960333;28;20523;-73
2021/04/29 12:35:35;;;;;;;7.53;2.95;;;16.60;91.70;;;;;;4965965;28;20045;-72
2021/04/29 12:38:03;;;;;;;7.80;2.92;;;16.30;92.50;;;;;;4953975;28;20141;-71
2021/04/29 12:40:31;;;;;;;4.90;2.50;;;17.10;91.00;;;;;;4963048;28;20077;-73
2021/04/29 12:43:15;;;;;;;3.75;2.63;;;17.80;87.10;;;;;;4965265;28;20570;-72
2021/04/29 12:45:50;;;;;;;3.03;2.30;;;18.50;85.80;;;;;;4962557;28;20114;-72
2021/04/29 12:48:34;;;;;;;2.25;2.08;;;19.10;84.10;;;;;;4959664;28;20464;-73
2021/04/29 12:51:13;;;;;;;4.50;1.50;;;19.40;79.20;;;;;;4954351;28;20126;-72
2021/04/29 12:53:50;;;;;;;2.80;1.90;;;19.50;80.40;;;;;;4959061;28;20058;-72
2021/04/29 12:56:23;;;;;;;3.50;1.80;;;19.00;79.00;;;;;;4965052;28;20773;-71
2021/04/29 12:58:50;;;;;;;3.05;1.88;;;19.40;77.30;;;;;;4963082;28;20062;-72
2021/04/29 13:01:18;;;;;;;;;;;20.00;79.20;;;;;;4956208;28;20250;-71
2021/04/29 13:03:45;;;;;;;5.57;2.78;;;20.00;78.40;;;;;;4952066;28;20394;-70
2021/04/29 13:06:13;;;;;;;3.33;2.03;;;19.90;76.90;;;;;;4961854;28;20050;-73
2021/04/29 13:08:52;;;;;;;3.22;2.28;;;20.10;76.10;;;;;;4963238;28;20125;-73
2021/04/29 13:11:38;;;;;;;2.38;1.63;;;19.80;73.90;;;;;;4968067;28;20299;-70
2021/04/29 13:14:08;;;;;;;7.25;2.00;;;19.50;74.50;;;;;;4965608;28;20506;-73
2021/04/29 13:16:35;;;;;;;9.77;2.15;;;20.00;74.70;;;;;;4945420;28;20063;-72
2021/04/29 13:19:03;;;;;;;3.33;2.00;;;19.40;74.30;;;;;;4967909;28;20462;-73
2021/04/29 13:21:29;;;;;;;1.58;1.48;;;19.00;73.70;;;;;;4966415;28;20082;-73
2021/04/29 13:23:57;;;;;;;1.80;1.70;;;19.50;71.90;;;;;;4965906;28;20042;-71
2021/04/29 13:26:24;;;;;;;2.92;1.40;;;19.30;71.50;;;;;;4968643;28;20067;-72
2021/04/29 13:28:51;;;;;;;5.35;2.20;;;19.60;72.50;;;;;;4962825;28;20049;-72
2021/04/29 13:31:18;;;;;;;4.13;1.70;;;19.60;72.70;;;;;;4957585;28;20130;-72
2021/04/29 13:33:45;;;;;;;1.92;1.65;;;19.70;73.60;;;;;;4966866;28;20047;-73
2021/04/29 13:36:14;;;;;;;3.63;1.75;;;19.70;71.80;;;;;;4976373;28;20045;-72
2021/04/29 13:38:40;;;;;;;4.32;1.02;;;19.50;72.60;;;;;;4954974;28;20139;-74
2021/04/29 13:41:07;;;;;;;2.42;1.30;;;19.70;69.50;;;;;;4952828;28;20051;-73
2021/04/29 13:43:34;;;;;;;2.85;1.70;;;19.60;69.10;;;;;;4951398;28;20050;-73
2021/04/29 13:46:02;;;;;;;2.97;1.30;;;19.70;66.90;;;;;;4947520;28;20595;-73
2021/04/29 13:48:29;;;;;;;3.55;1.33;;;19.70;68.50;;;;;;4974658;28;20529;-73
2021/04/29 13:50:56;;;;;;;5.15;1.27;;;19.90;66.50;;;;;;4974941;28;20085;-72
2021/04/29 13:53:23;;;;;;;4.95;1.20;;;19.80;65.90;;;;;;4974451;28;20483;-73
2021/04/29 13:55:49;;;;;;;5.30;1.45;;;19.80;67.10;;;;;;4956033;28;20074;-73
2021/04/29 13:58:18;;;;;;;3.63;1.27;;;20.20;66.70;;;;;;4975284;28;20109;-72
2021/04/29 14:00:46;;;;;;;1.98;1.35;;;20.30;66.90;;;;;;4967487;28;20050;-73
2021/04/29 14:03:13;;;;;;;3.13;1.30;;;20.30;65.60;;;;;;4955584;28;20222;-72
2021/04/29 14:05:40;;;;;;;5.60;1.00;;;20.00;65.80;;;;;;4973329;28;20078;-73
2021/04/29 14:08:07;;;;;;;4.82;1.20;;;19.90;67.70;;;;;;4956490;28;20051;-74
2021/04/29 14:10:34;;;;;;;5.15;1.13;;;18.90;67.10;;;;;;4971875;28;20058;-72
2021/04/29 14:13:02;;;;;;;7.85;1.33;;;18.60;68.90;;;;;;4956637;28;20538;-73
2021/04/29 14:15:33;;;;;;;1.80;0.98;;;18.30;69.50;;;;;;4957063;28;20130;-73
2021/04/29 14:18:00;;;;;;;1.65;0.85;;;17.80;68.50;;;;;;4955913;28;20066;-73
2021/04/29 14:20:27;;;;;;;3.30;1.00;;;17.70;67.80;;;;;;4956186;28;20047;-73
2021/04/29 14:22:54;;;;;;;6.82;1.17;;;17.60;68.90;;;;;;4962278;28;20047;-73
2021/04/29 14:25:24;;;;;;;2.80;1.08;;;17.60;68.40;;;;;;4941294;28;20049;-72
2021/04/29 14:27:51;;;;;;;1.55;1.30;;;18.00;65.70;;;;;;4937727;29;20150;-73
2021/04/29 14:30:19;;;;;;;2.80;1.10;;;18.00;66.10;;;;;;4960559;28;20122;-72
2021/04/29 14:32:48;;;;;;;1.88;0.90;;;18.10;67.60;;;;;;4952338;28;20419;-74
2021/04/29 14:35:17;;;;;;;2.47;1.40;;;18.00;66.80;;;;;;4968585;28;20126;-72
2021/04/29 14:37:45;;;;;;;6.15;1.42;;;17.40;69.90;;;;;;4966239;28;20050;-71
2021/04/29 14:40:14;;;;;;;2.38;1.80;;;17.20;75.50;;;;;;4967150;28;20066;-71
2021/04/29 14:42:41;;;;;;;4.45;3.03;;;17.20;77.80;;;;;;4963021;28;20050;-70
2021/04/29 14:45:08;;;;;;;4.35;3.75;;;17.50;79.90;;;;;;4963712;28;20502;-70
2021/04/29 14:47:35;;;;;;;6.30;4.30;;;17.50;81.80;;;;;;4966434;28;20089;-71
2021/04/29 14:50:03;;;;;;;9.77;5.50;;;17.20;82.80;;;;;;4970290;28;20054;-71
2021/04/29 14:52:30;;;;;;;9.18;5.07;;;16.90;83.80;;;;;;4962088;28;20068;-72
2021/04/29 14:54:56;;;;;;;9.88;5.65;;;16.60;84.70;;;;;;4964618;28;20043;-71
2021/04/29 14:57:23;;;;;;;6.97;5.05;;;16.30;85.00;;;;;;4942311;28;20049;-70
2021/04/29 14:59:51;;;;;;;7.72;4.68;;;16.60;87.60;;;;;;4968251;28;20074;-70
2021/04/29 15:02:19;;;;;;;9.48;4.45;;;16.70;84.80;;;;;;4949273;28;20123;-70
2021/04/29 15:04:45;;;;;;;7.00;4.72;;;17.20;83.70;;;;;;4970667;28;20778;-70
2021/04/29 15:07:13;;;;;;;5.53;4.07;;;16.90;82.30;;;;;;4971415;28;20546;-70
2021/04/29 15:09:40;;;;;;;6.45;3.17;;;16.80;82.90;;;;;;4954290;29;20049;-70
2021/04/29 15:12:07;;;;;;;6.28;3.42;;;16.90;78.50;;;;;;4959475;28;20046;-70
2021/04/29 15:14:34;;;;;;;7.10;6.40;;;16.80;77.10;;;;;;4956909;28;20071;-70
2021/04/29 15:17:00;;;;;;;10.40;8.55;;;17.10;83.20;;;;;;4971681;28;20051;-71
2021/04/29 15:19:27;;;;;;;9.27;8.13;;;17.10;85.60;;;;;;4960148;28;20370;-71
2021/04/29 15:21:54;;;;;;;11.57;8.85;;;16.90;85.80;;;;;;4962082;28;20130;-70
2021/04/29 15:24:22;;;;;;;12.82;9.43;;;16.90;85.80;;;;;;4973941;28;20108;-71
2021/04/29 15:26:49;;;;;;;13.52;10.25;;;16.80;87.70;;;;;;4956204;28;20059;-70
2021/04/29 15:29:16;;;;;;;;;;;16.50;87.50;;;;;;4956430;28;20600;-70
2021/04/29 15:31:42;;;;;;;13.35;10.23;;;16.50;89.10;;;;;;4955284;29;19926;-70
2021/04/29 15:34:09;;;;;;;;;;;16.40;90.20;;;;;;4954600;29;20047;-70
2021/04/29 15:36:36;;;;;;;10.00;9.00;;;15.90;90.00;;;;;;4964141;28;19992;-69
2021/04/29 15:39:04;;;;;;;10.60;8.85;;;15.70;89.90;;;;;;4973921;28;20656;-69
2021/04/29 15:41:31;;;;;;;11.65;9.02;;;15.50;91.10;;;;;;4973897;28;20061;-70
2021/04/29 15:43:59;;;;;;;11.82;9.15;;;15.30;91.70;;;;;;4973733;28;20055;-68
2021/04/29 15:46:25;;;;;;;13.73;9.45;;;15.10;92.20;;;;;;4972555;28;20038;-70
2021/04/29 15:48:52;;;;;;;11.57;9.23;;;15.10;93.00;;;;;;4974533;28;20117;-69
2021/04/29 15:51:18;;;;;;;14.38;10.00;;;15.00;93.00;;;;;;4973976;28;20523;-69
2021/04/29 15:53:46;;;;;;;11.88;8.85;;;14.90;93.70;;;;;;4959376;28;20503;-69
2021/04/29 15:56:14;;;;;;;10.77;9.30;;;14.90;92.90;;;;;;4967229;28;20039;-69
2021/04/29 15:58:42;;;;;;;14.20;9.15;;;14.70;93.20;;;;;;4954458;29;20054;-70
2021/04/29 16:01:09;;;;;;;10.68;9.25;;;14.70;93.60;;;;;;4966970;28;20276;-70
2021/04/29 16:03:36;;;;;;;10.95;9.75;;;14.60;94.50;;;;;;4966069;28;20047;-70
2021/04/29 16:06:03;;;;;;;9.57;8.65;;;14.90;94.60;;;;;;4954548;29;20039;-69
2021/04/29 16:08:30;;;;;;;9.60;8.43;;;14.70;94.60;;;;;;4953891;29;20509;-70
2021/04/29 16:10:57;;;;;;;9.70;7.97;;;14.70;95.40;;;;;;4953501;28;20127;-70
2021/04/29 16:13:25;;;;;;;9.77;7.28;;;14.60;95.60;;;;;;4954443;28;20047;-70
2021/04/29 16:16:00;;;;;;;10.65;8.55;;;14.30;95.60;;;;;;4939668;28;20047;-69
2021/04/29 16:18:27;;;;;;;6.82;6.15;;;14.30;96.70;;;;;;4972754;28;20047;-70
2021/04/29 16:20:55;;;;;;;7.78;6.78;;;14.20;96.00;;;;;;4968772;28;20047;-70
2021/04/29 16:23:22;;;;;;;8.05;6.10;;;14.10;96.80;;;;;;4953503;28;20055;-70
2021/04/29 16:25:49;;;;;;;6.30;5.47;;;14.10;96.20;;;;;;4936127;29;20574;-69
2021/04/29 16:28:15;;;;;;;5.28;4.28;;;14.20;96.80;;;;;;4935704;29;20055;-69
2021/04/29 16:30:43;;;;;;;5.18;4.38;;;13.90;96.20;;;;;;4947656;28;20053;-69
2021/04/29 16:33:10;;;;;;;6.90;3.67;;;13.80;95.30;;;;;;4972165;28;20051;-69
2021/04/29 16:35:37;;;;;;;5.05;3.42;;;13.70;95.50;;;;;;4972478;28;20102;-70
2021/04/29 16:38:04;;;;;;;7.15;3.85;;;13.60;95.70;;;;;;4966893;28;20050;-70
2021/04/29 16:40:31;;;;;;;4.15;3.55;;;13.50;95.70;;;;;;4952668;29;20573;-69
2021/04/29 16:42:58;;;;;;;5.07;3.50;;;13.50;96.50;;;;;;4953428;29;20039;-70
2021/04/29 16:45:25;;;;;;;3.60;3.30;;;13.40;96.40;;;;;;4952640;29;20462;-69
2021/04/29 16:47:52;;;;;;;3.40;3.10;;;13.40;97.30;;;;;;4938878;28;20043;-69
2021/04/29 16:50:20;;;;;;;5.28;3.63;;;13.20;96.60;;;;;;4971970;28;20514;-69
2021/04/29 16:52:47;;;;;;;3.75;2.80;;;13.30;96.40;;;;;;4954817;28;20507;-69
2021/04/29 16:55:15;;;;;;;4.32;2.90;;;13.00;96.90;;;;;;4953677;29;20097;-70
2021/04/29 16:57:43;;;;;;;4.90;3.20;;;12.80;96.50;;;;;;4938192;28;20047;-69
2021/04/29 17:00:12;;;;;;;3.83;3.00;;;12.80;96.50;;;;;;4956365;28;20523;-68
2021/04/29 17:02:39;;;;;;;3.40;2.70;;;12.50;96.00;;;;;;4952732;29;20048;-69
2021/04/29 17:05:06;;;;;;;3.72;2.22;;;12.40;96.00;;;;;;4952088;29;20591;-70
2021/04/29 17:07:33;;;;;;;3.95;2.85;;;12.30;96.60;;;;;;4954969;28;20107;-70
2021/04/29 17:10:00;;;;;;;3.08;2.78;;;12.00;97.30;;;;;;4954202;28;20922;-70
2021/04/29 17:12:30;;;;;;;2.70;2.50;;;11.90;97.90;;;;;;4954123;28;20224;-69
2021/04/29 17:14:57;;;;;;;3.72;2.80;;;11.80;98.00;;;;;;4971519;28;20376;-70
2021/04/29 17:17:23;;;;;;;;;;;11.80;97.90;;;;;;4963607;28;20062;-70
2021/04/29 17:19:49;;;;;;;3.20;2.90;;;11.80;99.00;;;;;;4959026;28;19965;-70
2021/04/29 17:22:16;;;;;;;4.95;2.92;;;11.70;98.70;;;;;;4962492;28;20050;-70
2021/04/29 17:24:43;;;;;;;3.35;3.15;;;11.60;99.50;;;;;;4974446;28;20051;-70
2021/04/29 17:27:10;;;;;;;3.70;3.40;;;11.50;99.80;;;;;;4969544;28;20738;-70
2021/04/29 17:29:37;;;;;;;4.07;3.15;;;11.40;99.90;;;;;;4971164;28;20407;-70
2021/04/29 17:32:04;;;;;;;4.00;3.60;;;11.30;99.90;;;;;;4973970;23;20054;-64
2021/04/29 17:34:31;;;;;;;4.05;3.70;;;11.10;99.90;;;;;;4969883;28;20474;-64
2021/04/29 17:36:58;;;;;;;4.05;3.75;;;11.10;99.90;;;;;;4971085;28;20101;-63
2021/04/29 17:39:25;;;;;;;3.97;3.10;;;11.10;99.90;;;;;;4971138;28;20380;-64
2021/04/29 17:41:52;;;;;;;4.80;3.55;;;10.90;99.90;;;;;;4979009;28;20119;-63
2021/04/29 17:44:19;;;;;;;3.88;3.25;;;10.80;99.90;;;;;;4983524;28;20043;-63